createdAt,value
2018-05-05T00:04:30.600Z,73.90
2018-05-05T00:09:58.766Z,73.90
2018-05-05T00:15:26.914Z,74.10
2018-05-05T00:20:55.066Z,74.20
2018-05-05T00:26:23.216Z,74.30
2018-05-05T00:31:52.115Z,74.70
2018-05-05T00:37:20.296Z,74.60
2018-05-05T00:42:48.436Z,74.60
2018-05-05T00:48:16.575Z,74.60
2018-05-05T00:53:44.711Z,74.60
2018-05-05T00:59:12.877Z,74.60
2018-05-05T01:04:41.022Z,74.80
2018-05-05T01:10:09.165Z,74.90
2018-05-05T01:15:37.408Z,75.10
2018-05-05T01:21:05.569Z,75.20
2018-05-05T01:26:33.721Z,75.20
2018-05-05T01:32:01.868Z,75.20
2018-05-05T01:37:30.783Z,75.30
2018-05-05T01:42:58.949Z,75.30
2018-05-05T01:48:27.088Z,75.30
2018-05-05T01:54:01.223Z,75.30
2018-05-05T01:59:29.605Z,75.10
2018-05-05T02:04:58.545Z,75.10
2018-05-05T02:10:26.684Z,74.90
2018-05-05T02:15:55.629Z,74.90
2018-05-05T02:21:23.743Z,74.90
2018-05-05T02:26:52.657Z,74.80
2018-05-05T02:32:20.815Z,74.80
2018-05-05T02:37:49.735Z,74.50
2018-05-05T02:43:17.877Z,74.50
2018-05-05T02:48:46.027Z,74.20
2018-05-05T02:54:14.203Z,73.80
2018-05-05T02:59:43.128Z,73.00
2018-05-05T03:05:11.273Z,72.90
2018-05-05T03:10:39.440Z,72.60
2018-05-05T03:16:12.924Z,72.10
2018-05-05T03:21:41.843Z,72.20
2018-05-05T03:27:09.985Z,72.20
2018-05-05T03:32:38.901Z,71.60
2018-05-05T03:38:07.053Z,71.60
2018-05-05T03:43:35.205Z,71.40
2018-05-05T03:49:04.458Z,71.30
2018-05-05T03:54:32.622Z,71.30
2018-05-05T04:00:20.485Z,72.10
2018-05-05T04:05:48.633Z,71.40
2018-05-05T04:11:17.546Z,71.40
2018-05-05T04:16:45.705Z,71.40
2018-05-05T04:22:13.846Z,71.40
2018-05-05T04:27:42.001Z,71.30
2018-05-05T04:33:12.101Z,71.30
2018-05-05T04:38:41.020Z,71.20
2018-05-05T04:44:09.155Z,71.30
2018-05-05T04:49:38.063Z,71.50
2018-05-05T04:55:06.220Z,71.40
2018-05-05T05:00:34.378Z,71.60
2018-05-05T05:06:02.548Z,71.70
2018-05-05T05:11:32.249Z,71.80
2018-05-05T05:17:00.441Z,71.80
2018-05-05T05:22:28.581Z,71.90
2018-05-05T05:27:57.919Z,72.90
2018-05-05T05:33:27.029Z,72.30
2018-05-05T05:38:55.933Z,72.50
2018-05-05T05:44:24.829Z,72.50
2018-05-05T05:49:52.972Z,72.60
2018-05-05T05:55:32.458Z,72.90
2018-05-05T06:01:01.328Z,73.00
2018-05-05T06:06:29.486Z,73.00
2018-05-05T06:11:57.628Z,72.90
2018-05-05T06:17:25.766Z,73.10
2018-05-05T06:22:53.925Z,73.40
2018-05-05T06:28:23.135Z,74.00
2018-05-05T06:33:51.305Z,73.90
2018-05-05T06:39:19.466Z,75.30
2018-05-05T06:44:47.620Z,74.80
2018-05-05T06:50:19.435Z,75.00
2018-05-05T06:55:48.497Z,75.10
2018-05-05T07:01:17.612Z,75.00
2018-05-05T07:06:46.524Z,74.90
2018-05-05T07:12:14.690Z,74.90
2018-05-05T07:17:42.846Z,74.80
2018-05-05T07:23:10.996Z,74.60
2018-05-05T07:28:39.136Z,74.70
2018-05-05T07:34:08.073Z,74.20
2018-05-05T07:39:36.980Z,73.70
2018-05-05T07:45:05.123Z,73.60
2018-05-05T07:50:34.065Z,73.50
2018-05-05T07:56:03.005Z,73.60
2018-05-05T08:01:31.159Z,72.90
2018-05-05T08:06:59.322Z,72.30
2018-05-05T08:12:27.495Z,72.20
2018-05-05T08:17:55.777Z,71.40
2018-05-05T08:23:23.904Z,71.40
2018-05-05T08:28:52.940Z,70.60
2018-05-05T08:34:21.085Z,70.60
2018-05-05T08:39:49.249Z,70.20
2018-05-05T08:45:17.396Z,69.70
2018-05-05T08:50:45.536Z,69.10
2018-05-05T08:56:15.224Z,67.60
2018-05-05T09:01:44.223Z,66.30
2018-05-05T09:07:13.155Z,65.10
2018-05-05T09:12:41.299Z,65.00
2018-05-05T09:18:09.445Z,65.40
2018-05-05T09:23:37.606Z,65.40
2018-05-05T09:29:05.759Z,64.50
2018-05-05T09:34:33.925Z,64.50
2018-05-05T09:40:02.142Z,63.40
2018-05-05T09:45:30.649Z,62.30
2018-05-05T09:50:59.580Z,62.10
2018-05-05T09:56:27.778Z,60.30
2018-05-05T10:01:55.907Z,59.90
2018-05-05T10:07:24.065Z,59.80
2018-05-05T10:12:52.217Z,60.10
2018-05-05T10:18:21.183Z,58.90
2018-05-05T10:23:49.349Z,58.80
2018-05-05T10:29:17.506Z,58.80
2018-05-05T10:34:46.441Z,58.40
2018-05-05T10:40:15.364Z,57.90
2018-05-05T10:45:43.517Z,57.80
2018-05-05T10:51:11.674Z,57.70
2018-05-05T10:56:39.827Z,57.50
2018-05-05T11:02:08.748Z,57.30
2018-05-05T11:07:36.927Z,56.60
2018-05-05T11:13:05.096Z,54.30
2018-05-05T11:18:33.240Z,55.70
2018-05-05T11:24:01.442Z,55.50
2018-05-05T11:29:30.364Z,53.90
2018-05-05T11:34:58.522Z,53.80
2018-05-05T11:40:26.697Z,53.90
2018-05-05T11:45:54.840Z,53.60
2018-05-05T11:51:23.750Z,53.10
2018-05-05T11:56:51.913Z,53.00
2018-05-05T12:02:20.954Z,53.20
2018-05-05T12:07:49.077Z,53.20
2018-05-05T12:13:17.211Z,53.90
2018-05-05T12:18:45.347Z,53.50
2018-05-05T12:24:13.506Z,52.40
2018-05-05T12:29:41.700Z,52.90
2018-05-05T12:35:09.897Z,52.80
2018-05-05T12:40:37.997Z,52.10
2018-05-05T12:46:06.212Z,52.70
2018-05-05T12:51:35.335Z,52.70
2018-05-05T12:57:03.492Z,52.50
2018-05-05T13:02:31.649Z,51.80
2018-05-05T13:07:59.869Z,52.70
2018-05-05T13:13:28.058Z,52.80
2018-05-05T13:18:56.320Z,52.40
2018-05-05T13:24:24.476Z,51.80
2018-05-05T13:29:54.720Z,51.90
2018-05-05T13:35:22.892Z,51.90
2018-05-05T13:40:51.034Z,51.60
2018-05-05T13:46:19.319Z,51.20
2018-05-05T13:51:47.476Z,51.20
2018-05-05T13:57:15.646Z,51.50
2018-05-05T14:02:44.565Z,51.80
2018-05-05T14:08:13.464Z,52.10
2018-05-05T14:13:41.671Z,52.10
2018-05-05T14:19:09.831Z,51.60
2018-05-05T14:24:38.140Z,51.80
2018-05-05T14:30:06.304Z,52.00
2018-05-05T14:35:35.235Z,51.60
2018-05-05T14:41:04.163Z,49.10
2018-05-05T14:46:33.086Z,44.80
2018-05-05T14:52:01.265Z,44.70
2018-05-05T14:57:29.420Z,47.10
2018-05-05T15:02:57.564Z,47.70
2018-05-05T15:08:26.482Z,48.80
2018-05-05T15:13:54.651Z,48.70
2018-05-05T15:19:22.800Z,49.60
2018-05-05T15:24:51.059Z,50.20
2018-05-05T15:30:19.986Z,49.80
2018-05-05T15:35:48.135Z,49.70
2018-05-05T15:41:16.292Z,49.80
2018-05-05T15:46:44.483Z,49.70
2018-05-05T15:52:12.633Z,48.50
2018-05-05T15:57:40.796Z,49.20
2018-05-05T16:03:09.696Z,51.50
2018-05-05T16:08:37.845Z,50.90
2018-05-05T16:14:05.997Z,51.40
2018-05-05T16:19:34.131Z,52.10
2018-05-05T16:25:02.339Z,52.50
2018-05-05T16:30:30.497Z,52.40
2018-05-05T16:35:58.649Z,53.50
2018-05-05T16:41:27.558Z,53.60
2018-05-05T16:46:56.113Z,53.50
2018-05-05T16:52:24.280Z,53.80
2018-05-05T16:57:52.419Z,53.90
2018-05-05T17:03:21.502Z,54.20
2018-05-05T17:08:51.351Z,55.70
2018-05-05T17:14:19.501Z,55.80
2018-05-05T17:19:47.645Z,56.40
2018-05-05T17:25:15.785Z,56.20
2018-05-05T17:30:43.956Z,56.50
2018-05-05T17:36:12.101Z,56.80
2018-05-05T17:41:40.253Z,56.40
2018-05-05T17:47:08.400Z,56.50
2018-05-05T17:52:38.272Z,57.30
2018-05-05T17:58:07.188Z,57.60
2018-05-05T18:03:35.351Z,58.20
2018-05-05T18:09:03.519Z,58.10
2018-05-05T18:14:31.729Z,58.60
2018-05-05T18:19:59.909Z,59.00
2018-05-05T18:25:28.189Z,59.50
2018-05-05T18:30:57.138Z,60.10
2018-05-05T18:36:26.057Z,60.40
2018-05-05T18:41:54.216Z,60.30
2018-05-05T18:47:22.369Z,60.60
2018-05-05T18:52:50.503Z,60.70
2018-05-05T18:58:18.653Z,60.80
2018-05-05T19:03:47.553Z,61.20
2018-05-05T19:09:15.692Z,61.20
2018-05-05T19:14:43.855Z,61.50
2018-05-05T19:20:13.005Z,62.50
2018-05-05T19:25:41.161Z,61.90
2018-05-05T19:31:09.468Z,61.70
2018-05-05T19:36:38.210Z,61.50
2018-05-05T19:42:09.874Z,62.00
2018-05-05T19:47:38.015Z,62.10
2018-05-05T19:53:06.174Z,61.90
2018-05-05T19:58:34.325Z,61.70
2018-05-05T20:04:04.518Z,61.90
2018-05-05T20:09:32.716Z,61.80
2018-05-05T20:15:00.856Z,62.10
2018-05-05T20:20:29.005Z,62.20
2018-05-05T20:25:58.086Z,62.40
2018-05-05T20:31:27.038Z,62.80
2018-05-05T20:36:55.179Z,63.40
2018-05-05T20:42:23.333Z,62.90
2018-05-05T20:47:51.489Z,63.00
2018-05-05T20:53:19.629Z,63.20
2018-05-05T20:58:47.773Z,63.30
2018-05-05T21:04:15.912Z,63.70
2018-05-05T21:09:44.075Z,63.70
2018-05-05T21:15:12.224Z,64.00
2018-05-05T21:20:40.393Z,64.30
2018-05-05T21:26:09.324Z,64.90
2018-05-05T21:31:38.246Z,65.30
2018-05-05T21:37:06.388Z,65.00
2018-05-05T21:42:35.328Z,65.40
2018-05-05T21:48:04.276Z,65.60
2018-05-05T21:53:32.420Z,65.60
2018-05-05T21:59:00.621Z,65.80
2018-05-05T22:04:29.853Z,66.00
2018-05-05T22:09:58.021Z,67.20
2018-05-05T22:15:26.199Z,66.60
2018-05-05T22:20:55.304Z,66.80
2018-05-05T22:26:23.442Z,67.10
2018-05-05T22:31:52.363Z,67.80
2018-05-05T22:37:20.523Z,67.70
2018-05-05T22:42:48.674Z,68.00
2018-05-05T22:48:16.842Z,68.10
2018-05-05T22:53:45.766Z,68.60
2018-05-05T22:59:13.919Z,68.60
2018-05-05T23:04:42.076Z,68.90
2018-05-05T23:10:10.241Z,69.00
2018-05-05T23:15:39.147Z,69.20
2018-05-05T23:21:07.302Z,69.30
2018-05-05T23:26:36.231Z,69.60
2018-05-05T23:32:05.137Z,69.80
2018-05-05T23:37:33.305Z,70.10
2018-05-05T23:43:01.450Z,70.00
2018-05-05T23:48:29.595Z,70.10
2018-05-05T23:53:57.750Z,70.30
2018-05-05T23:59:26.649Z,71.10
